Time;durP1;ratioP1;P1;durP2;ratioP2;P2;SDS_P1;SDS_P2;PMS_P1;PMS_P2;Temp;Humidity;BMP_temperature;BMP_pressure;BME280_temperature;BME280_humidity;BME280_pressure;Samples;Min_cycle;Max_cycle;Signal;HPM_P1;HPM_P2
2023/10/03 00:01:44;;;;;;;30.00;13.48;;;20.30;99.90;;;;;;4155193;28;20030;-71
2023/10/03 00:03:44;;;;;;;27.67;13.10;;;20.40;99.90;;;;;;4151863;28;20033;-71
2023/10/03 00:05:46;;;;;;;27.08;12.70;;;20.40;99.90;;;;;;4158112;28;20054;-71
2023/10/03 00:07:47;;;;;;;30.08;14.23;;;20.40;99.90;;;;;;4132289;28;20038;-71
2023/10/03 00:09:48;;;;;;;30.52;12.40;;;20.40;99.90;;;;;;4155361;28;20092;-72
2023/10/03 00:11:48;;;;;;;27.90;13.25;;;20.40;99.90;;;;;;4150490;28;20034;-71
2023/10/03 00:13:50;;;;;;;27.77;11.97;;;20.40;99.90;;;;;;4136534;28;20113;-71
2023/10/03 00:15:51;;;;;;;33.63;14.05;;;20.40;99.90;;;;;;4148999;28;20262;-71
2023/10/03 00:17:53;;;;;;;32.40;14.13;;;20.30;99.90;;;;;;4154100;28;20026;-72
2023/10/03 00:19:55;;;;;;;28.13;13.07;;;20.40;99.90;;;;;;4131331;28;20057;-71
2023/10/03 00:21:56;;;;;;;31.23;13.83;;;20.40;99.90;;;;;;4134195;28;20026;-70
2023/10/03 00:23:56;;;;;;;32.67;14.85;;;20.40;99.90;;;;;;4152374;28;20034;-71
2023/10/03 00:25:59;;;;;;;31.50;13.77;;;20.40;99.90;;;;;;4150563;28;20068;-72
2023/10/03 00:27:59;;;;;;;41.78;15.93;;;20.40;99.90;;;;;;4152485;28;20401;-72
2023/10/03 00:30:00;;;;;;;28.83;13.68;;;20.30;99.90;;;;;;4130890;28;20043;-71
2023/10/03 00:32:01;;;;;;;31.23;14.95;;;20.30;99.90;;;;;;4146237;28;20057;-72
2023/10/03 00:34:02;;;;;;;31.10;14.45;;;20.40;99.90;;;;;;4134805;28;20042;-72
2023/10/03 00:36:03;;;;;;;32.33;14.90;;;20.30;99.90;;;;;;4137399;28;20033;-72
2023/10/03 00:38:13;;;;;;;33.33;14.90;;;20.30;99.90;;;;;;4152022;28;20022;-72
2023/10/03 00:42:25;;;;;;;36.85;16.17;;;20.30;99.90;;;;;;4153535;28;20040;-72
2023/10/03 00:44:26;;;;;;;36.17;16.17;;;20.30;99.90;;;;;;4132980;28;20113;-72
2023/10/03 00:46:29;;;;;;;30.67;15.02;;;20.20;99.90;;;;;;4149772;28;20041;-72
2023/10/03 00:48:30;;;;;;;32.38;14.52;;;20.20;99.90;;;;;;4151695;28;20391;-72
2023/10/03 00:50:31;;;;;;;34.50;15.30;;;20.20;99.90;;;;;;4150289;28;20034;-72
2023/10/03 00:52:32;;;;;;;30.10;13.25;;;20.30;99.90;;;;;;4156099;28;20034;-72
2023/10/03 00:54:33;;;;;;;34.30;15.00;;;20.30;99.90;;;;;;4132204;28;20049;-71
2023/10/03 00:56:34;;;;;;;35.75;15.88;;;20.20;99.90;;;;;;4149704;28;20516;-72
2023/10/03 00:58:36;;;;;;;32.83;14.77;;;20.30;99.90;;;;;;4149117;28;22378;-72
2023/10/03 01:00:38;;;;;;;35.20;15.70;;;20.20;99.90;;;;;;4151779;28;20030;-72
2023/10/03 01:02:50;;;;;;;32.22;14.98;;;20.30;99.90;;;;;;4153913;28;20042;-72
2023/10/03 01:04:52;;;;;;;33.65;14.95;;;20.20;99.90;;;;;;4152433;28;20114;-71
2023/10/03 01:06:53;;;;;;;;;;;20.20;99.90;;;;;;4156788;28;20095;-71
2023/10/03 01:08:54;;;;;;;34.70;15.20;;;20.30;99.90;;;;;;4150464;28;19913;-72
2023/10/03 01:10:55;;;;;;;31.35;13.88;;;20.20;99.90;;;;;;4151061;28;20054;-72
2023/10/03 01:12:59;;;;;;;32.03;15.00;;;20.20;99.90;;;;;;4153132;28;20036;-72
2023/10/03 01:15:00;;;;;;;33.80;15.05;;;20.20;99.90;;;;;;4131369;28;20045;-71
2023/10/03 01:17:02;;;;;;;32.45;14.98;;;20.20;99.90;;;;;;4121947;28;20410;-72
2023/10/03 01:19:25;;;;;;;31.58;14.63;;;20.20;99.90;;;;;;4129142;28;20390;-71
2023/10/03 01:21:26;;;;;;;37.75;15.02;;;20.30;99.90;;;;;;4154756;28;20036;-71
2023/10/03 01:23:35;;;;;;;31.80;14.57;;;20.20;99.90;;;;;;4153880;28;20038;-72
2023/10/03 01:25:42;;;;;;;34.97;14.95;;;20.30;99.90;;;;;;4143941;28;20045;-71
2023/10/03 01:27:44;;;;;;;33.88;14.93;;;20.30;99.90;;;;;;4130749;28;20050;-71
2023/10/03 01:29:45;;;;;;;35.28;15.52;;;20.20;99.90;;;;;;4129840;28;20034;-66
2023/10/03 01:31:48;;;;;;;30.90;14.13;;;20.20;99.90;;;;;;4147343;28;20029;-66
2023/10/03 01:33:49;;;;;;;36.80;15.10;;;20.20;99.90;;;;;;4144997;28;20038;-66
2023/10/03 01:35:50;;;;;;;33.17;14.25;;;20.30;99.90;;;;;;4148185;28;20038;-68
2023/10/03 01:37:51;;;;;;;32.33;14.13;;;20.20;99.90;;;;;;4147843;28;20029;-67
2023/10/03 01:39:51;;;;;;;32.60;14.80;;;20.20;99.90;;;;;;4144890;28;20041;-66
2023/10/03 01:41:52;;;;;;;34.20;15.25;;;20.20;99.90;;;;;;4152475;28;20042;-66
2023/10/03 01:43:52;;;;;;;31.40;14.55;;;20.20;99.90;;;;;;4144337;28;20022;-66
2023/10/03 01:45:55;;;;;;;32.63;14.32;;;20.20;99.90;;;;;;4146283;28;20367;-66
2023/10/03 01:47:58;;;;;;;28.55;14.10;;;20.10;99.90;;;;;;4151213;28;20497;-66
2023/10/03 01:49:59;;;;;;;31.50;13.55;;;20.20;99.90;;;;;;4153546;28;20164;-66
2023/10/03 01:52:02;;;;;;;33.58;14.82;;;20.10;99.90;;;;;;4146491;28;20415;-66
2023/10/03 01:54:04;;;;;;;32.67;14.80;;;20.10;99.90;;;;;;4151258;28;20034;-66
2023/10/03 01:56:05;;;;;;;37.97;16.08;;;20.10;99.90;;;;;;4137929;28;20057;-66
2023/10/03 01:58:06;;;;;;;30.60;13.98;;;20.10;99.90;;;;;;4151408;28;20056;-66
2023/10/03 02:00:28;;;;;;;34.75;15.63;;;20.10;99.90;;;;;;4135011;28;20109;-67
2023/10/03 02:02:29;;;;;;;36.05;16.25;;;20.10;99.90;;;;;;4153801;28;20036;-66
2023/10/03 02:04:29;;;;;;;36.53;15.38;;;20.10;99.90;;;;;;4147016;28;20093;-66
2023/10/03 02:06:30;;;;;;;33.50;15.15;;;20.00;99.90;;;;;;4111720;28;20030;-66
2023/10/03 02:08:33;;;;;;;32.17;15.10;;;20.10;99.90;;;;;;4114919;28;20098;-68
2023/10/03 02:10:37;;;;;;;29.02;13.60;;;20.10;99.90;;;;;;4150615;28;20067;-66
2023/10/03 02:12:40;;;;;;;32.33;14.50;;;20.10;99.90;;;;;;4149554;28;20037;-66
2023/10/03 02:14:41;;;;;;;31.23;14.32;;;20.00;99.90;;;;;;4144326;28;20041;-66
2023/10/03 02:16:46;;;;;;;30.42;14.52;;;20.00;99.90;;;;;;4146351;28;20434;-66
2023/10/03 02:18:46;;;;;;;38.05;14.35;;;20.00;99.90;;;;;;4137683;28;20036;-66
2023/10/03 02:20:53;;;;;;;29.23;13.75;;;20.10;99.90;;;;;;4133862;28;20066;-66
2023/10/03 02:22:57;;;;;;;29.73;13.68;;;20.10;99.90;;;;;;4149470;28;20044;-66
2023/10/03 02:24:58;;;;;;;31.98;14.25;;;20.10;99.90;;;;;;4153560;28;20025;-66
2023/10/03 02:27:01;;;;;;;32.15;14.23;;;20.00;99.90;;;;;;4155319;28;20032;-66
2023/10/03 02:29:02;;;;;;;29.80;14.27;;;20.10;99.90;;;;;;4147485;28;20057;-66
2023/10/03 02:31:06;;;;;;;28.83;13.88;;;20.10;99.90;;;;;;4130280;28;20382;-67
2023/10/03 02:33:12;;;;;;;35.00;14.10;;;20.10;99.90;;;;;;4150195;28;20546;-66
2023/10/03 02:35:16;;;;;;;31.33;14.75;;;20.10;99.90;;;;;;4153774;28;20076;-66
2023/10/03 02:37:17;;;;;;;32.05;14.55;;;20.10;99.90;;;;;;4156391;28;20065;-68
2023/10/03 02:39:24;;;;;;;30.13;13.65;;;20.00;99.90;;;;;;4150738;28;20050;-70
2023/10/03 02:41:26;;;;;;;27.63;13.27;;;20.00;99.90;;;;;;4159293;28;20096;-70
2023/10/03 02:43:28;;;;;;;40.22;14.82;;;20.00;99.90;;;;;;4153723;28;20038;-70
2023/10/03 02:45:30;;;;;;;30.25;14.05;;;20.00;99.90;;;;;;4155448;28;20501;-70
2023/10/03 02:47:31;;;;;;;26.88;13.18;;;20.00;99.90;;;;;;4154838;28;20060;-70
2023/10/03 02:49:32;;;;;;;30.88;14.25;;;20.00;99.90;;;;;;4151036;28;20057;-70
2023/10/03 02:51:32;;;;;;;29.40;13.68;;;20.00;99.90;;;;;;4156638;28;20397;-70
2023/10/03 02:53:35;;;;;;;29.67;14.02;;;20.00;99.90;;;;;;4139145;28;20037;-70
2023/10/03 02:55:35;;;;;;;31.33;13.98;;;20.00;99.90;;;;;;4154940;28;20877;-70
2023/10/03 02:57:38;;;;;;;30.42;13.77;;;20.00;99.90;;;;;;4152706;28;20040;-70
2023/10/03 02:59:39;;;;;;;26.00;12.98;;;20.10;99.90;;;;;;4136286;28;20053;-70
2023/10/03 03:01:41;;;;;;;31.45;13.50;;;20.10;99.90;;;;;;4155660;28;20083;-70
2023/10/03 03:03:42;;;;;;;25.67;12.07;;;20.10;99.90;;;;;;4151643;28;20096;-70
2023/10/03 03:05:43;;;;;;;26.55;12.63;;;20.10;99.90;;;;;;4139414;28;20041;-70
2023/10/03 03:07:48;;;;;;;31.23;14.10;;;20.10;99.90;;;;;;4138417;28;20107;-70
2023/10/03 03:09:50;;;;;;;30.75;13.65;;;20.10;99.90;;;;;;4148957;28;20037;-70
2023/10/03 03:11:50;;;;;;;30.50;12.80;;;20.20;99.90;;;;;;4156322;28;20068;-70
2023/10/03 03:13:51;;;;;;;28.65;13.55;;;20.20;99.90;;;;;;4153217;28;20033;-70
2023/10/03 03:15:59;;;;;;;29.45;13.13;;;20.20;99.90;;;;;;4151515;28;20584;-70
2023/10/03 03:18:02;;;;;;;28.60;12.85;;;20.20;99.90;;;;;;4154717;28;20033;-70
2023/10/03 03:20:17;;;;;;;28.75;12.50;;;20.20;99.90;;;;;;4142523;28;20041;-71
2023/10/03 03:22:21;;;;;;;34.25;13.63;;;20.20;99.90;;;;;;4139705;28;20038;-70
2023/10/03 03:24:33;;;;;;;31.13;12.77;;;20.20;99.90;;;;;;4136659;28;20034;-71
2023/10/03 03:26:36;;;;;;;29.58;13.23;;;20.20;99.90;;;;;;4155754;28;20383;-70
2023/10/03 03:28:38;;;;;;;28.15;13.18;;;20.20;99.90;;;;;;4131580;28;20403;-70
2023/10/03 03:30:46;;;;;;;27.15;12.18;;;20.20;99.90;;;;;;4136027;28;20030;-70
2023/10/03 03:32:47;;;;;;;26.17;12.52;;;20.20;99.90;;;;;;4145323;28;20042;-70
2023/10/03 03:34:48;;;;;;;27.08;11.57;;;20.30;99.90;;;;;;4141012;28;20097;-70
2023/10/03 03:36:54;;;;;;;26.92;11.88;;;20.30;99.90;;;;;;4155211;28;20034;-70
2023/10/03 03:38:58;;;;;;;27.35;12.45;;;20.30;99.90;;;;;;4133064;28;20474;-70
2023/10/03 03:40:59;;;;;;;26.08;11.65;;;20.30;99.90;;;;;;4148658;28;20029;-70
2023/10/03 03:43:03;;;;;;;31.20;12.93;;;20.30;99.90;;;;;;4141349;28;20034;-70
2023/10/03 03:45:04;;;;;;;28.73;12.18;;;20.40;99.90;;;;;;4129529;28;20036;-72
2023/10/03 03:47:05;;;;;;;26.20;12.23;;;20.40;99.90;;;;;;4132171;28;20085;-70
2023/10/03 03:49:06;;;;;;;26.67;12.00;;;20.40;99.90;;;;;;4147913;28;20038;-66
2023/10/03 03:51:12;;;;;;;24.80;11.82;;;20.40;99.90;;;;;;4153055;28;20033;-66
2023/10/03 03:53:12;;;;;;;22.73;10.57;;;20.40;99.90;;;;;;4150208;28;20026;-66
2023/10/03 03:55:13;;;;;;;27.13;12.05;;;20.30;99.90;;;;;;4132985;28;20483;-66
2023/10/03 03:57:13;;;;;;;23.83;11.23;;;20.40;99.90;;;;;;4158238;28;20025;-66
2023/10/03 03:59:14;;;;;;;24.02;11.73;;;20.40;99.90;;;;;;4154655;28;20041;-66
2023/10/03 04:01:17;;;;;;;23.98;11.55;;;20.40;99.90;;;;;;4145975;28;20053;-66
2023/10/03 04:03:23;;;;;;;25.10;11.45;;;20.40;99.90;;;;;;4143492;28;20046;-66
2023/10/03 04:05:31;;;;;;;19.77;10.07;;;20.40;99.90;;;;;;4147447;28;20042;-66
2023/10/03 04:07:33;;;;;;;22.10;10.93;;;20.40;99.90;;;;;;4156965;28;20116;-66
2023/10/03 04:09:36;;;;;;;22.25;11.00;;;20.50;99.90;;;;;;4149326;28;20026;-66
2023/10/03 04:11:37;;;;;;;25.13;11.55;;;20.50;99.90;;;;;;4153402;28;20029;-66
2023/10/03 04:13:49;;;;;;;22.83;11.10;;;20.50;99.90;;;;;;4146719;28;20502;-68
2023/10/03 04:15:50;;;;;;;25.10;11.75;;;20.40;99.90;;;;;;4153533;28;20037;-66
2023/10/03 04:17:51;;;;;;;25.48;11.20;;;20.40;99.90;;;;;;4154599;28;20040;-66
2023/10/03 04:19:52;;;;;;;22.90;11.07;;;20.40;99.90;;;;;;4128836;28;20120;-68
2023/10/03 04:21:52;;;;;;;26.30;11.93;;;20.40;99.90;;;;;;4150638;28;20036;-67
2023/10/03 04:23:53;;;;;;;22.88;10.38;;;20.50;99.90;;;;;;4156430;28;20143;-67
2023/10/03 04:25:54;;;;;;;21.55;9.63;;;20.50;99.90;;;;;;4145212;28;20481;-67
2023/10/03 04:27:56;;;;;;;26.27;11.25;;;20.50;99.90;;;;;;4151910;28;20033;-66
2023/10/03 04:29:56;;;;;;;23.08;10.35;;;20.50;99.90;;;;;;4154873;28;20424;-66
2023/10/03 04:31:57;;;;;;;23.63;10.73;;;20.50;99.90;;;;;;4157281;28;20045;-66
2023/10/03 04:33:58;;;;;;;24.33;10.85;;;20.50;99.90;;;;;;4151073;28;20042;-66
2023/10/03 04:36:04;;;;;;;25.40;11.07;;;20.50;99.90;;;;;;4129611;28;20034;-66
2023/10/03 04:38:07;;;;;;;23.63;10.77;;;20.50;99.90;;;;;;4155672;28;20463;-66
2023/10/03 04:40:16;;;;;;;21.83;9.88;;;20.50;99.90;;;;;;4150409;28;20034;-67
2023/10/03 04:42:16;;;;;;;25.70;11.45;;;20.50;99.90;;;;;;4151053;28;20045;-66
2023/10/03 04:44:17;;;;;;;22.80;10.68;;;20.50;99.90;;;;;;4134439;28;20466;-66
2023/10/03 04:46:18;;;;;;;24.10;10.48;;;20.60;99.90;;;;;;4135311;28;20077;-66
2023/10/03 04:48:19;;;;;;;26.90;11.27;;;20.60;99.90;;;;;;4152304;28;20079;-66
2023/10/03 04:50:25;;;;;;;24.15;10.73;;;20.60;99.90;;;;;;4149494;28;20117;-66
2023/10/03 04:52:26;;;;;;;22.67;10.23;;;20.60;99.90;;;;;;4150164;28;20073;-66
2023/10/03 04:54:27;;;;;;;26.35;11.18;;;20.60;99.90;;;;;;4135617;28;21801;-66
2023/10/03 04:56:28;;;;;;;20.67;9.57;;;20.60;99.90;;;;;;4150612;28;20033;-66
2023/10/03 04:58:28;;;;;;;28.88;10.98;;;20.70;99.90;;;;;;4152519;28;20071;-75
2023/10/03 05:00:30;;;;;;;22.98;10.18;;;20.70;99.90;;;;;;4150496;28;20032;-75
2023/10/03 05:02:31;;;;;;;20.17;9.80;;;20.70;99.90;;;;;;4135113;28;20053;-75
2023/10/03 05:04:31;;;;;;;21.88;10.02;;;20.70;99.90;;;;;;4150251;28;20280;-76
2023/10/03 05:06:33;;;;;;;22.98;10.93;;;20.70;99.90;;;;;;4152741;28;20084;-75
2023/10/03 05:08:33;;;;;;;21.65;9.35;;;20.80;99.90;;;;;;4150159;28;20025;-75
2023/10/03 05:10:35;;;;;;;20.45;9.35;;;20.80;99.90;;;;;;4155678;28;20049;-75
2023/10/03 05:12:37;;;;;;;23.90;10.27;;;20.80;99.90;;;;;;4157829;28;20036;-75
2023/10/03 05:14:43;;;;;;;25.92;9.55;;;20.80;99.90;;;;;;4155838;28;20482;-75
2023/10/03 05:16:44;;;;;;;22.15;10.38;;;20.80;99.90;;;;;;4146679;28;20585;-74
2023/10/03 05:18:46;;;;;;;20.50;9.82;;;20.80;99.90;;;;;;4148412;28;20034;-73
2023/10/03 05:20:48;;;;;;;22.17;9.75;;;20.80;99.90;;;;;;4147478;28;20041;-72
2023/10/03 05:22:49;;;;;;;20.92;10.27;;;20.90;99.90;;;;;;4152347;28;20058;-73
2023/10/03 05:24:50;;;;;;;32.58;10.18;;;20.80;99.90;;;;;;4134711;28;20038;-73
2023/10/03 05:26:55;;;;;;;24.20;9.15;;;20.90;99.90;;;;;;4147679;28;20034;-75
2023/10/03 05:28:56;;;;;;;23.10;10.27;;;20.90;99.90;;;;;;4125397;28;20099;-74
2023/10/03 05:30:58;;;;;;;21.15;10.23;;;20.90;99.90;;;;;;4154552;28;20433;-75
2023/10/03 05:32:59;;;;;;;20.52;9.98;;;20.90;99.90;;;;;;4152319;28;20469;-80
2023/10/03 05:35:00;;;;;;;21.52;10.65;;;20.80;99.90;;;;;;4144091;28;20499;-80
2023/10/03 05:37:02;;;;;;;30.55;10.52;;;20.80;99.90;;;;;;4147223;28;20069;-80
2023/10/03 05:39:06;;;;;;;19.00;8.57;;;20.80;99.90;;;;;;4137741;28;20094;-80
2023/10/03 05:41:21;;;;;;;21.00;9.52;;;20.80;99.90;;;;;;4137220;28;20423;-80
2023/10/03 05:43:21;;;;;;;18.55;8.65;;;20.80;99.90;;;;;;4145057;28;20025;-80
2023/10/03 05:45:22;;;;;;;18.45;8.68;;;20.90;99.90;;;;;;4149279;28;20045;-80
2023/10/03 05:47:22;;;;;;;20.10;8.95;;;20.80;99.90;;;;;;4146791;28;20122;-80
2023/10/03 05:49:26;;;;;;;20.30;8.82;;;20.90;99.90;;;;;;4152303;28;20402;-71
2023/10/03 05:51:27;;;;;;;20.73;9.10;;;20.80;99.90;;;;;;4148112;28;20514;-80
2023/10/03 05:53:27;;;;;;;18.48;9.50;;;20.90;99.90;;;;;;4149836;28;20045;-81
2023/10/03 05:55:28;;;;;;;21.55;8.95;;;20.80;99.90;;;;;;4145532;28;20053;-80
2023/10/03 05:57:29;;;;;;;20.80;9.15;;;20.80;99.90;;;;;;4131750;28;20053;-79
2023/10/03 05:59:30;;;;;;;21.00;8.77;;;20.80;99.90;;;;;;4149304;28;20463;-80
2023/10/03 06:01:30;;;;;;;15.50;7.57;;;20.80;99.90;;;;;;4153963;28;20399;-80
2023/10/03 06:03:31;;;;;;;20.63;8.70;;;20.90;99.90;;;;;;4153741;28;20041;-80
2023/10/03 06:05:32;;;;;;;16.90;8.15;;;20.80;99.90;;;;;;4152891;28;20085;-80
2023/10/03 06:07:33;;;;;;;19.77;7.97;;;20.80;99.90;;;;;;4150880;28;20116;-80
2023/10/03 06:09:34;;;;;;;19.77;8.70;;;20.80;99.90;;;;;;4128347;28;20048;-80
2023/10/03 06:11:34;;;;;;;16.35;7.47;;;20.80;99.90;;;;;;4150376;28;20065;-80
2023/10/03 06:13:35;;;;;;;17.48;6.95;;;20.70;99.90;;;;;;4148185;28;20026;-81
2023/10/03 06:15:40;;;;;;;12.13;6.18;;;20.70;99.90;;;;;;4146269;28;20030;-80
2023/10/03 06:17:42;;;;;;;13.38;6.20;;;20.70;99.90;;;;;;4148449;28;20034;-81
2023/10/03 06:19:43;;;;;;;;;;;20.70;99.90;;;;;;4147676;28;20040;-80
2023/10/03 06:21:44;;;;;;;14.57;6.22;;;20.70;99.90;;;;;;4135774;28;19917;-81
2023/10/03 06:23:46;;;;;;;11.77;5.53;;;20.60;99.90;;;;;;4134762;28;20383;-80
2023/10/03 06:25:47;;;;;;;11.13;5.50;;;20.70;99.90;;;;;;4131783;28;20042;-81
2023/10/03 06:27:48;;;;;;;14.27;5.72;;;20.60;99.90;;;;;;4150705;28;20111;-80
2023/10/03 06:29:49;;;;;;;14.65;6.13;;;20.60;99.90;;;;;;4150162;28;20034;-80
2023/10/03 06:31:51;;;;;;;14.93;7.05;;;20.70;99.90;;;;;;4148694;28;20061;-81
2023/10/03 06:33:52;;;;;;;11.85;5.57;;;20.60;99.90;;;;;;4151207;28;20034;-81
2023/10/03 06:35:52;;;;;;;11.70;5.65;;;20.60;99.90;;;;;;4151005;28;20447;-81
2023/10/03 06:37:53;;;;;;;15.60;6.43;;;20.70;99.90;;;;;;4152929;28;20057;-81
2023/10/03 06:39:54;;;;;;;13.18;5.90;;;20.60;99.90;;;;;;4158817;28;20026;-72
2023/10/03 06:41:55;;;;;;;14.25;5.05;;;20.60;99.90;;;;;;4147852;28;20038;-80
2023/10/03 06:43:56;;;;;;;10.50;4.97;;;20.60;99.90;;;;;;4153873;28;20033;-81
2023/10/03 06:45:57;;;;;;;10.93;4.85;;;20.60;99.90;;;;;;4131977;28;20491;-81
2023/10/03 06:48:03;;;;;;;8.70;3.72;;;20.50;99.90;;;;;;4153769;28;20040;-81
2023/10/03 06:50:08;;;;;;;7.03;4.05;;;20.60;99.90;;;;;;4150512;28;20489;-79
2023/10/03 06:52:08;;;;;;;5.97;3.45;;;20.50;99.90;;;;;;4146049;28;20529;-81
2023/10/03 06:54:09;;;;;;;8.23;3.78;;;20.50;99.90;;;;;;4147765;28;20030;-81
2023/10/03 06:56:09;;;;;;;10.40;3.60;;;20.40;99.90;;;;;;4146075;28;20550;-82
2023/10/03 06:58:13;;;;;;;9.13;3.63;;;20.40;99.90;;;;;;4129767;28;20541;-82
2023/10/03 07:00:14;;;;;;;7.78;3.50;;;20.40;99.90;;;;;;4145650;28;20026;-81
2023/10/03 07:02:15;;;;;;;8.00;3.30;;;20.40;99.90;;;;;;4147071;28;20036;-82
2023/10/03 07:04:16;;;;;;;5.50;3.33;;;20.40;99.90;;;;;;4131603;28;20114;-77
2023/10/03 07:06:17;;;;;;;9.73;3.65;;;20.40;99.90;;;;;;4132400;28;20072;-78
2023/10/03 07:08:18;;;;;;;5.18;3.17;;;20.40;99.90;;;;;;4132705;28;20038;-81
2023/10/03 07:10:19;;;;;;;10.00;3.35;;;20.30;99.90;;;;;;4152511;28;20033;-81
2023/10/03 07:12:20;;;;;;;7.03;3.58;;;20.30;99.90;;;;;;4127470;28;20097;-79
2023/10/03 07:14:21;;;;;;;8.63;3.47;;;20.40;99.90;;;;;;4151224;28;20038;-81
2023/10/03 07:16:21;;;;;;;6.95;3.60;;;20.30;99.90;;;;;;4149322;28;20498;-80
2023/10/03 07:18:22;;;;;;;8.05;3.30;;;20.40;99.90;;;;;;4151196;28;20022;-69
2023/10/03 07:20:23;;;;;;;9.63;3.92;;;20.40;99.90;;;;;;4155257;28;20025;-69
2023/10/03 07:22:23;;;;;;;5.68;3.65;;;20.40;99.90;;;;;;4137896;28;20390;-69
2023/10/03 07:24:29;;;;;;;8.43;3.33;;;20.40;99.90;;;;;;4156038;28;20033;-69
2023/10/03 07:26:29;;;;;;;7.53;3.75;;;20.40;99.90;;;;;;4152383;28;20386;-68
2023/10/03 07:28:32;;;;;;;7.10;3.60;;;20.40;99.90;;;;;;4154396;28;20033;-69
2023/10/03 07:30:33;;;;;;;9.27;3.42;;;20.40;99.90;;;;;;4128789;28;20030;-68
2023/10/03 07:32:34;;;;;;;5.60;3.25;;;20.40;99.90;;;;;;4156919;28;20405;-68
2023/10/03 07:34:35;;;;;;;6.63;3.00;;;20.40;99.90;;;;;;4152955;28;20038;-69
2023/10/03 07:36:36;;;;;;;5.72;3.78;;;20.40;99.90;;;;;;4131003;28;20047;-69
2023/10/03 07:38:37;;;;;;;9.25;4.22;;;20.40;99.90;;;;;;4153852;28;20041;-68
2023/10/03 07:40:41;;;;;;;5.95;3.42;;;20.40;99.90;;;;;;4152569;28;20487;-69
2023/10/03 07:42:43;;;;;;;5.63;3.30;;;20.40;99.90;;;;;;4151566;28;20048;-68
2023/10/03 07:44:44;;;;;;;7.38;3.40;;;20.40;99.90;;;;;;4133839;28;20411;-68
2023/10/03 07:46:44;;;;;;;6.57;3.55;;;20.40;99.90;;;;;;4147646;28;20030;-68
2023/10/03 07:48:45;;;;;;;6.50;3.72;;;20.40;99.90;;;;;;4152799;28;20037;-69
2023/10/03 07:50:46;;;;;;;5.20;2.90;;;20.40;99.90;;;;;;4160377;28;20359;-68
2023/10/03 07:52:48;;;;;;;6.85;3.30;;;20.40;99.90;;;;;;4132541;28;20839;-68
2023/10/03 07:54:54;;;;;;;;;;;20.40;99.90;;;;;;4152824;28;20033;-69
2023/10/03 07:56:55;;;;;;;7.25;3.03;;;20.40;99.90;;;;;;4150216;28;19909;-69
2023/10/03 07:58:57;;;;;;;6.65;3.25;;;20.30;99.90;;;;;;4153258;28;20049;-69
2023/10/03 08:00:57;;;;;;;7.78;3.38;;;20.40;99.90;;;;;;4143959;28;20096;-69
2023/10/03 08:02:58;;;;;;;6.15;3.47;;;20.30;99.90;;;;;;4147626;28;20049;-69
2023/10/03 08:05:00;;;;;;;6.95;3.15;;;20.30;99.90;;;;;;4145261;28;20404;-69
2023/10/03 08:07:01;;;;;;;10.80;3.37;;;20.30;99.90;;;;;;4136259;28;20125;-68
2023/10/03 08:09:06;;;;;;;6.82;3.60;;;20.40;99.90;;;;;;4153687;28;20394;-68
2023/10/03 08:11:07;;;;;;;9.88;4.07;;;20.40;99.90;;;;;;4123314;28;20069;-68
2023/10/03 08:13:08;;;;;;;6.53;3.20;;;20.30;99.90;;;;;;4140961;28;20038;-69
2023/10/03 08:15:17;;;;;;;6.35;3.53;;;20.40;99.90;;;;;;4151200;28;20402;-70
2023/10/03 08:17:26;;;;;;;8.32;3.30;;;20.30;99.90;;;;;;4148353;28;20474;-69
2023/10/03 08:19:26;;;;;;;5.75;3.92;;;20.30;99.90;;;;;;4133020;28;20146;-69
2023/10/03 08:21:28;;;;;;;6.68;3.65;;;20.30;99.90;;;;;;4148368;28;20054;-69
2023/10/03 08:23:33;;;;;;;9.03;3.70;;;20.20;99.90;;;;;;4135860;28;20502;-68
2023/10/03 08:25:35;;;;;;;8.30;3.60;;;20.20;99.90;;;;;;4145196;28;20290;-68
2023/10/03 08:27:35;;;;;;;9.15;3.60;;;20.20;99.90;;;;;;4129609;28;20104;-68
2023/10/03 08:29:36;;;;;;;7.32;4.13;;;20.20;99.90;;;;;;4152969;28;20041;-70
2023/10/03 08:31:38;;;;;;;7.05;3.70;;;20.10;99.90;;;;;;4149249;28;20164;-70
2023/10/03 08:33:39;;;;;;;7.03;4.03;;;20.10;99.90;;;;;;4148051;28;20069;-70
2023/10/03 08:35:40;;;;;;;7.05;3.92;;;20.10;99.90;;;;;;4134384;28;20049;-70
2023/10/03 08:37:40;;;;;;;9.35;4.28;;;20.10;99.90;;;;;;4156010;28;20379;-70
2023/10/03 08:39:41;;;;;;;7.50;4.10;;;20.10;99.90;;;;;;4154194;28;20045;-70
2023/10/03 08:41:47;;;;;;;8.68;4.00;;;20.10;99.90;;;;;;4154617;28;20485;-70
2023/10/03 08:43:54;;;;;;;6.72;3.45;;;20.10;99.90;;;;;;4149989;28;20069;-70
2023/10/03 08:45:58;;;;;;;14.30;4.43;;;20.00;99.90;;;;;;4128733;28;20034;-70
2023/10/03 08:48:05;;;;;;;6.75;3.75;;;20.00;99.90;;;;;;4137488;28;20101;-70
2023/10/03 08:50:11;;;;;;;9.98;4.80;;;20.00;99.90;;;;;;4122425;28;20054;-72
2023/10/03 08:52:11;;;;;;;8.70;4.32;;;20.00;99.90;;;;;;4140463;28;20038;-70
2023/10/03 08:54:13;;;;;;;5.68;3.65;;;19.90;99.90;;;;;;4134079;28;20845;-70
2023/10/03 08:56:18;;;;;;;8.27;3.88;;;19.90;99.90;;;;;;4125240;28;20037;-70
2023/10/03 08:58:19;;;;;;;6.95;3.38;;;19.90;99.90;;;;;;4141132;28;20479;-70
2023/10/03 09:00:25;;;;;;;9.52;4.30;;;19.90;99.90;;;;;;4123793;28;20037;-70
2023/10/03 09:02:28;;;;;;;9.27;4.70;;;19.90;99.90;;;;;;4134514;28;20030;-70
2023/10/03 09:04:38;;;;;;;6.88;3.85;;;19.80;99.90;;;;;;4139592;28;20030;-70
2023/10/03 09:06:41;;;;;;;7.10;4.03;;;19.80;99.90;;;;;;4123084;28;20129;-70
2023/10/03 09:08:43;;;;;;;7.65;4.15;;;19.80;99.90;;;;;;4133272;28;20081;-70
2023/10/03 09:10:52;;;;;;;4.95;3.55;;;19.80;99.90;;;;;;4135650;28;20057;-70
2023/10/03 09:13:03;;;;;;;6.50;3.85;;;19.80;99.90;;;;;;4135574;28;20058;-70
2023/10/03 09:15:09;;;;;;;11.15;4.75;;;19.80;99.90;;;;;;4130440;28;20045;-70
2023/10/03 09:17:21;;;;;;;8.65;4.18;;;19.90;99.90;;;;;;4155328;28;20109;-71
2023/10/03 09:19:42;;;;;;;6.43;3.53;;;19.80;99.90;;;;;;4135908;28;20038;-70
2023/10/03 09:21:45;;;;;;;8.68;3.90;;;19.80;99.90;;;;;;4147380;28;20038;-70
2023/10/03 09:24:02;;;;;;;7.68;4.20;;;19.80;99.90;;;;;;4145923;28;20030;-70
2023/10/03 09:26:03;;;;;;;6.53;4.20;;;19.80;99.90;;;;;;4136201;28;20034;-70
2023/10/03 09:28:05;;;;;;;6.30;3.85;;;19.80;99.90;;;;;;4136221;28;20065;-70
2023/10/03 09:30:12;;;;;;;7.47;4.20;;;19.80;99.90;;;;;;4139901;28;20026;-71
2023/10/03 09:32:12;;;;;;;6.30;3.63;;;19.80;99.90;;;;;;4123339;28;20034;-69
2023/10/03 09:34:15;;;;;;;6.18;4.15;;;19.80;99.90;;;;;;4136869;28;20095;-70
2023/10/03 09:36:17;;;;;;;6.30;3.55;;;19.70;99.90;;;;;;4143535;28;22781;-70
2023/10/03 09:38:25;;;;;;;10.93;3.67;;;19.70;99.90;;;;;;4144950;28;20117;-70
2023/10/03 09:40:27;;;;;;;8.07;3.65;;;19.60;99.90;;;;;;4153216;28;20115;-70
2023/10/03 09:42:32;;;;;;;6.38;3.55;;;19.60;99.90;;;;;;4127125;28;20045;-70
2023/10/03 09:44:32;;;;;;;7.60;3.40;;;19.60;99.90;;;;;;4145502;28;20411;-70
2023/10/03 09:46:40;;;;;;;7.35;3.80;;;19.60;99.90;;;;;;4123914;28;20030;-70
2023/10/03 09:48:41;;;;;;;7.40;3.63;;;19.50;99.90;;;;;;4122346;28;20034;-70
2023/10/03 09:50:51;;;;;;;6.20;3.63;;;19.50;99.90;;;;;;4136952;28;20488;-70
2023/10/03 09:52:52;;;;;;;6.30;3.20;;;19.60;99.90;;;;;;4146200;28;20082;-70
2023/10/03 09:54:54;;;;;;;7.68;3.60;;;19.50;99.90;;;;;;4136547;28;20042;-70
2023/10/03 09:56:55;;;;;;;6.68;3.63;;;19.50;99.90;;;;;;4140068;28;20030;-70
2023/10/03 09:58:56;;;;;;;6.45;3.45;;;19.40;99.90;;;;;;4094988;28;20099;-70
2023/10/03 10:00:58;;;;;;;9.13;3.70;;;19.40;99.90;;;;;;4138198;28;20437;-70
2023/10/03 10:03:03;;;;;;;5.45;3.50;;;19.50;99.90;;;;;;4131147;28;20029;-70
2023/10/03 10:05:19;;;;;;;4.95;3.28;;;19.40;99.90;;;;;;4131145;28;20030;-70
2023/10/03 10:07:33;;;;;;;7.07;3.88;;;19.40;99.90;;;;;;4138354;28;20042;-70
2023/10/03 10:09:40;;;;;;;5.53;3.53;;;19.50;99.90;;;;;;4114846;28;20038;-70
2023/10/03 10:12:15;;;;;;;5.68;3.22;;;19.50;99.90;;;;;;4130353;28;20097;-70
2023/10/03 10:14:19;;;;;;;7.40;3.50;;;19.50;99.90;;;;;;4120654;28;20045;-70
2023/10/03 10:16:20;;;;;;;8.15;3.63;;;19.50;99.90;;;;;;4132570;28;20037;-71
2023/10/03 10:18:44;;;;;;;7.65;3.15;;;19.50;99.90;;;;;;4117403;28;20475;-70
2023/10/03 10:20:45;;;;;;;5.70;3.70;;;19.60;99.90;;;;;;4121614;28;20287;-70
2023/10/03 10:25:25;;;;;;;7.22;3.05;;;19.50;99.90;;;;;;4143397;28;20033;-71
2023/10/03 10:27:29;;;;;;;5.20;3.20;;;19.60;99.90;;;;;;4140420;28;20483;-70
2023/10/03 10:29:34;;;;;;;8.23;3.35;;;19.60;99.90;;;;;;4116942;28;20027;-70
2023/10/03 10:31:38;;;;;;;7.72;3.25;;;19.60;99.90;;;;;;4121411;28;20034;-70
2023/10/03 10:33:38;;;;;;;7.57;2.45;;;19.60;99.90;;;;;;4116282;28;20094;-70
2023/10/03 10:36:12;;;;;;;5.88;2.00;;;19.50;99.90;;;;;;4131010;28;20101;-70